Profiler II Survey — CZ2496 — position and weather

sailwx.info

Track history (hours):
 
Tides and Currents Weather Stations Pressure Air Temp Water Temp Dewpoint Dewpoint Depression Visibility Wind Speed Wind Dir Waves Ship Positions

Profiler II Survey

Last reported at 2014-Oct-20 20:11 UTC. Time now 2014-Oct-30 13:55 UTC.
Position N 49°10' W 122°56'.
Warning: this ship's position is 9 days out of date.

Length 11 m.

Type: Dredging. MMSI: 316002054.

Date/timePositionNaut miles runAvg speedWind from/ knotsBaromVisibWave heightAir tempDewpointWater temp
2014-Oct-20 20:11N 49°10' W 122°56'1015.7
2014-Oct-20 19:33N 49°07' W 123°10'2 2.1
2014-Oct-20 18:29N 49°08' W 123°13'0 0.3
2014-Oct-20 17:31N 49°08' W 123°13'0 0.1
2014-Oct-20 16:33N 49°08' W 123°13'  
2014-Oct-16 20:33N 49°07' W 123°16'1 0.5
2014-Oct-16 19:33N 49°07' W 123°16'0 0.3
2014-Oct-16 18:33N 49°07' W 123°16'0 0.3
2014-Oct-16 17:33N 49°07' W 123°16'3 3.3
2014-Oct-16 16:31N 49°07' W 123°11'0 0.0
2014-Oct-15 20:14N 49°07' W 123°11'1 1.1
2014-Oct-15 19:32N 49°08' W 123°12'1 0.6
2014-Oct-15 18:33N 49°07' W 123°12'0 0.4
2014-Oct-15 17:33N 49°07' W 123°12'0 0.1
2014-Oct-15 16:33N 49°07' W 123°12'0 0.0
2014-Oct-14 20:30N 49°07' W 123°11'5 4.6
2014-Oct-14 19:31N 49°06' W 123°18'0 0.4
2014-Oct-14 18:29N 49°07' W 123°18'1 0.6
2014-Oct-14 16:33N 49°06' W 123°19'1413.7
2014-Oct-14 15:32N 49°09' W 122°58'  
Track history (hours):
 
Tides and Currents Weather Stations Pressure Air Temp Water Temp Dewpoint Dewpoint Depression Visibility Wind Speed Wind Dir Waves Ship Positions

Profiler II Survey

Last reported at 2014-Oct-20 20:11 UTC. Time now 2014-Oct-30 13:55 UTC.
Position N 49°10' W 122°56'.
Warning: this ship's position is 9 days out of date.

Length 11 m.

Type: Dredging. MMSI: 316002054.

Date/timePositionNaut miles runAvg speedWind from/ knotsBaromVisibWave heightAir tempDewpointWater temp
2014-Oct-20 20:11N 49°10' W 122°56'1015.7
2014-Oct-20 19:33N 49°07' W 123°10'2 2.1
2014-Oct-20 18:29N 49°08' W 123°13'0 0.3
2014-Oct-20 17:31N 49°08' W 123°13'0 0.1
2014-Oct-20 16:33N 49°08' W 123°13'  
2014-Oct-16 20:33N 49°07' W 123°16'1 0.5
2014-Oct-16 19:33N 49°07' W 123°16'0 0.3
2014-Oct-16 18:33N 49°07' W 123°16'0 0.3
2014-Oct-16 17:33N 49°07' W 123°16'3 3.3
2014-Oct-16 16:31N 49°07' W 123°11'0 0.0
2014-Oct-15 20:14N 49°07' W 123°11'1 1.1
2014-Oct-15 19:32N 49°08' W 123°12'1 0.6
2014-Oct-15 18:33N 49°07' W 123°12'0 0.4
2014-Oct-15 17:33N 49°07' W 123°12'0 0.1
2014-Oct-15 16:33N 49°07' W 123°12'0 0.0
2014-Oct-14 20:30N 49°07' W 123°11'5 4.6
2014-Oct-14 19:31N 49°06' W 123°18'0 0.4
2014-Oct-14 18:29N 49°07' W 123°18'1 0.6
2014-Oct-14 16:33N 49°06' W 123°19'1413.7
2014-Oct-14 15:32N 49°09' W 122°58'  

Dump ship's entire track history